createdAt,value
2022-08-26T00:02:11.460Z,45.50
2022-08-26T00:05:17.633Z,45.75
2022-08-26T00:08:25.026Z,45.50
2022-08-26T00:11:30.078Z,48.75
2022-08-26T00:14:34.111Z,45.00
2022-08-26T00:17:40.359Z,47.00
2022-08-26T00:20:46.205Z,47.75
2022-08-26T00:23:50.229Z,42.75
2022-08-26T00:26:54.139Z,42.75
2022-08-26T00:29:59.122Z,38.50
2022-08-26T00:33:05.661Z,40.75
2022-08-26T00:36:19.989Z,42.75
2022-08-26T00:39:24.530Z,42.25
2022-08-26T00:42:28.798Z,44.25
2022-08-26T00:45:40.965Z,45.75
2022-08-26T00:48:51.809Z,46.25
2022-08-26T00:52:00.371Z,39.00
2022-08-26T00:55:10.119Z,45.00
2022-08-26T00:58:14.371Z,41.50
2022-08-26T01:01:22.900Z,41.25
2022-08-26T01:04:30.062Z,40.75
2022-08-26T01:07:37.843Z,44.25
2022-08-26T01:10:44.864Z,47.25
2022-08-26T01:13:52.515Z,42.75
2022-08-26T01:16:58.368Z,41.50
2022-08-26T01:20:08.787Z,46.50
2022-08-26T01:23:16.488Z,45.50
2022-08-26T01:26:23.292Z,40.00
2022-08-26T01:29:27.635Z,46.25
2022-08-26T01:32:36.713Z,41.00
2022-08-26T01:35:44.700Z,40.75
2022-08-26T01:38:50.607Z,44.50
2022-08-26T01:41:58.039Z,45.75
2022-08-26T01:45:15.100Z,38.25
2022-08-26T01:48:24.738Z,41.00
2022-08-26T01:51:30.546Z,42.75
2022-08-26T01:54:36.960Z,46.25
2022-08-26T01:57:44.360Z,43.00
2022-08-26T02:00:50.377Z,46.25
2022-08-26T02:03:59.879Z,46.25
2022-08-26T02:07:07.694Z,47.00
2022-08-26T02:10:13.805Z,45.25
2022-08-26T02:13:19.097Z,46.50
2022-08-26T02:16:27.478Z,44.50
2022-08-26T02:19:33.395Z,39.00
2022-08-26T02:22:37.617Z,45.50
2022-08-26T02:25:50.911Z,49.00
2022-08-26T02:29:03.371Z,49.25
2022-08-26T02:32:27.136Z,50.75
2022-08-26T02:35:33.299Z,42.50
2022-08-26T02:38:38.049Z,49.50
2022-08-26T02:41:47.478Z,50.50
2022-08-26T02:44:52.500Z,49.25
2022-08-26T02:47:59.642Z,48.25
2022-08-26T02:51:03.535Z,48.75
2022-08-26T02:54:08.018Z,49.75
2022-08-26T02:57:15.077Z,47.50
2022-08-26T03:00:20.894Z,47.00
2022-08-26T03:03:25.624Z,47.25
2022-08-26T03:06:32.498Z,46.50
2022-08-26T03:09:38.925Z,47.25
2022-08-26T03:12:47.530Z,50.25
2022-08-26T03:15:55.558Z,51.75
2022-08-26T03:19:00.991Z,50.00
2022-08-26T03:22:06.123Z,46.25
2022-08-26T03:25:13.345Z,50.75
2022-08-26T03:28:22.154Z,48.50
2022-08-26T03:31:25.463Z,42.00
2022-08-26T03:34:29.363Z,47.00
2022-08-26T03:37:33.913Z,47.75
2022-08-26T03:40:38.927Z,51.50
2022-08-26T03:43:48.484Z,46.00
2022-08-26T03:46:55.100Z,50.75
2022-08-26T03:49:59.750Z,41.25
2022-08-26T03:53:07.441Z,47.50
2022-08-26T03:56:16.831Z,43.00
2022-08-26T03:59:25.072Z,45.75
2022-08-26T04:02:31.828Z,46.50
2022-08-26T04:05:35.750Z,42.75
2022-08-26T04:08:40.260Z,49.25
2022-08-26T04:11:50.744Z,43.50
2022-08-26T04:19:07.465Z,48.25
2022-08-26T04:22:30.040Z,49.50
2022-08-26T04:25:36.205Z,51.25
2022-08-26T04:28:46.468Z,47.00
2022-08-26T04:32:06.707Z,45.00
2022-08-26T04:35:16.050Z,48.25
2022-08-26T04:41:59.394Z,47.75
2022-08-26T04:45:10.387Z,44.75
2022-08-26T04:48:18.504Z,48.00
2022-08-26T04:51:28.033Z,48.25
2022-08-26T04:54:32.083Z,47.75
2022-08-26T04:57:36.382Z,47.25
2022-08-26T05:04:38.699Z,43.00
2022-08-26T05:07:44.668Z,43.75
2022-08-26T05:10:55.380Z,47.25
2022-08-26T05:14:05.810Z,48.00
2022-08-26T05:17:10.238Z,46.75
2022-08-26T05:20:26.231Z,44.00
2022-08-26T05:23:32.182Z,45.75
2022-08-26T05:26:36.487Z,43.50
2022-08-26T05:29:40.820Z,46.25
2022-08-26T05:32:45.136Z,44.25
2022-08-26T05:35:51.781Z,45.50
2022-08-26T05:38:59.254Z,44.50
2022-08-26T05:42:06.476Z,48.75
2022-08-26T05:45:11.668Z,44.25
2022-08-26T05:48:16.890Z,47.50
2022-08-26T05:51:26.098Z,46.75
2022-08-26T05:54:30.785Z,46.50
2022-08-26T05:57:40.455Z,45.50
2022-08-26T06:00:47.013Z,44.75
2022-08-26T06:03:54.255Z,42.00
2022-08-26T06:06:59.963Z,43.67
2022-08-26T06:10:30.479Z,40.33
2022-08-26T06:13:31.911Z,44.75
2022-08-26T06:16:38.777Z,39.00
2022-08-26T06:19:47.394Z,38.00
2022-08-26T06:23:10.473Z,39.25
2022-08-26T06:26:18.559Z,38.33
2022-08-26T06:29:26.946Z,41.50
2022-08-26T06:32:31.722Z,40.33
2022-08-26T06:35:42.567Z,39.75
2022-08-26T06:38:53.032Z,33.33
2022-08-26T06:42:03.161Z,37.67
2022-08-26T06:45:12.334Z,38.00
2022-08-26T06:48:21.873Z,36.67
2022-08-26T06:51:34.744Z,45.67
2022-08-26T06:54:44.340Z,39.33
2022-08-26T06:57:48.704Z,34.33
2022-08-26T07:00:54.136Z,37.33
2022-08-26T07:04:00.429Z,35.67
2022-08-26T07:07:04.604Z,34.67
2022-08-26T07:10:17.439Z,30.00
2022-08-26T07:13:30.503Z,36.00
2022-08-26T07:16:35.779Z,28.00
2022-08-26T07:19:40.523Z,34.00
2022-08-26T07:22:44.337Z,27.67
2022-08-26T07:25:50.904Z,26.67
2022-08-26T07:28:57.788Z,28.33
2022-08-26T07:32:04.650Z,30.00
2022-08-26T07:35:10.553Z,27.67
2022-08-26T07:38:16.896Z,23.33
2022-08-26T07:41:25.454Z,21.33
2022-08-26T07:44:31.347Z,19.00
2022-08-26T07:47:35.810Z,20.33
2022-08-26T07:50:50.339Z,8.67
2022-08-26T07:53:56.569Z,18.00
2022-08-26T07:57:05.214Z,21.33
2022-08-26T08:00:17.150Z,20.33
2022-08-26T08:03:21.882Z,21.67
2022-08-26T08:06:28.883Z,21.67
2022-08-26T08:09:34.277Z,18.33
2022-08-26T08:12:39.798Z,17.33
2022-08-26T08:15:44.910Z,19.00
2022-08-26T08:18:48.663Z,19.00
2022-08-26T08:21:55.135Z,18.33
2022-08-26T08:24:58.822Z,18.67
2022-08-26T08:28:05.213Z,17.00
2022-08-26T08:31:10.449Z,16.33
2022-08-26T08:34:15.267Z,18.33
2022-08-26T08:37:46.210Z,17.67
2022-08-26T08:40:50.657Z,19.33
2022-08-26T08:44:44.446Z,17.33
2022-08-26T08:48:46.709Z,15.67
2022-08-26T08:51:58.991Z,17.67
2022-08-26T08:55:31.731Z,17.33
2022-08-26T08:58:51.552Z,16.33
2022-08-26T09:02:07.576Z,18.67
2022-08-26T09:06:01.059Z,14.00
2022-08-26T09:09:08.863Z,18.33
2022-08-26T09:12:16.674Z,17.33
2022-08-26T09:15:30.202Z,17.33
2022-08-26T09:18:52.733Z,16.00
2022-08-26T09:21:57.859Z,15.67
2022-08-26T09:25:04.531Z,15.00
2022-08-26T09:28:17.528Z,17.67
2022-08-26T09:31:27.014Z,13.00
2022-08-26T09:34:33.730Z,17.00
2022-08-26T09:37:42.326Z,17.00
2022-08-26T09:40:59.103Z,18.67
2022-08-26T09:44:14.625Z,15.00
2022-08-26T09:47:24.307Z,16.67
2022-08-26T09:50:31.941Z,15.00
2022-08-26T09:53:51.315Z,15.33
2022-08-26T09:57:13.828Z,14.33
2022-08-26T10:00:33.505Z,13.67
2022-08-26T10:03:39.820Z,16.33
2022-08-26T10:06:55.982Z,16.67
2022-08-26T10:10:01.004Z,16.00
2022-08-26T10:13:14.362Z,17.33
2022-08-26T10:16:23.552Z,16.00
2022-08-26T10:19:56.195Z,18.00
2022-08-26T10:23:08.508Z,13.33
2022-08-26T10:26:18.252Z,13.67
2022-08-26T10:29:31.350Z,11.67
2022-08-26T10:32:49.967Z,10.33
2022-08-26T10:35:59.778Z,12.33
2022-08-26T10:39:09.726Z,14.00
2022-08-26T10:42:24.603Z,11.00
2022-08-26T10:45:35.771Z,12.33
2022-08-26T10:48:48.457Z,13.00
2022-08-26T10:51:59.982Z,10.67
2022-08-26T10:55:19.224Z,9.33
2022-08-26T10:58:44.639Z,12.00
2022-08-26T11:02:03.886Z,9.33
2022-08-26T11:05:22.692Z,10.67
2022-08-26T11:08:31.012Z,9.00
2022-08-26T11:11:53.379Z,5.67
2022-08-26T11:14:59.144Z,13.00
2022-08-26T11:18:07.832Z,10.00
2022-08-26T11:21:50.724Z,10.00
2022-08-26T11:25:05.493Z,15.33
2022-08-26T11:28:09.278Z,8.00
2022-08-26T11:31:54.103Z,10.33
2022-08-26T11:35:01.520Z,11.67
2022-08-26T11:38:21.274Z,10.00
2022-08-26T11:41:29.435Z,11.00
2022-08-26T11:44:49.576Z,11.33
2022-08-26T11:47:54.864Z,8.67
2022-08-26T11:51:08.463Z,13.00
2022-08-26T11:54:16.408Z,14.33
2022-08-26T11:57:21.811Z,10.00
2022-08-26T12:00:33.471Z,11.67
2022-08-26T12:03:45.512Z,11.00
2022-08-26T12:06:53.845Z,15.67
2022-08-26T12:10:50.971Z,17.33
2022-08-26T12:14:07.217Z,15.67
2022-08-26T12:17:16.060Z,11.33
2022-08-26T12:20:46.024Z,11.67
2022-08-26T12:23:55.040Z,11.00
2022-08-26T12:27:17.561Z,12.67
2022-08-26T12:30:26.445Z,11.33
2022-08-26T12:33:31.267Z,9.67
2022-08-26T12:36:42.378Z,9.67
2022-08-26T12:39:51.848Z,11.67
2022-08-26T12:42:56.879Z,8.00
2022-08-26T12:46:04.895Z,10.00
2022-08-26T12:49:11.021Z,11.67
2022-08-26T12:52:33.987Z,13.33
2022-08-26T12:55:44.112Z,14.00
2022-08-26T12:59:05.005Z,11.00
2022-08-26T13:02:12.070Z,11.00
2022-08-26T13:05:23.982Z,11.00
2022-08-26T13:08:29.495Z,11.67
2022-08-26T13:11:58.465Z,14.33
2022-08-26T13:15:04.028Z,14.00
2022-08-26T13:18:11.251Z,13.67
2022-08-26T13:21:19.902Z,11.00
2022-08-26T13:24:27.781Z,13.67
2022-08-26T13:27:34.653Z,13.33
2022-08-26T13:30:38.474Z,12.00
2022-08-26T13:33:44.738Z,13.00
2022-08-26T13:36:52.062Z,15.33
2022-08-26T13:39:57.690Z,17.33
2022-08-26T13:43:04.145Z,13.67
2022-08-26T13:46:10.487Z,15.00
2022-08-26T13:49:15.308Z,13.00
2022-08-26T13:52:30.265Z,14.67
2022-08-26T13:55:41.076Z,19.00
2022-08-26T13:58:50.095Z,13.33
2022-08-26T14:01:54.853Z,14.67
2022-08-26T14:05:02.518Z,14.33
2022-08-26T14:08:07.561Z,21.67
2022-08-26T14:11:13.004Z,16.33
2022-08-26T14:14:21.411Z,17.67
2022-08-26T14:17:30.690Z,15.67
2022-08-26T14:20:39.108Z,16.00
2022-08-26T14:23:47.752Z,17.00
2022-08-26T14:26:52.889Z,16.00
2022-08-26T14:30:00.419Z,34.33
2022-08-26T14:33:06.945Z,20.00
2022-08-26T14:36:32.342Z,19.33
2022-08-26T14:39:37.226Z,20.33
2022-08-26T14:42:47.857Z,15.00
2022-08-26T14:45:58.695Z,16.67
2022-08-26T14:49:06.194Z,14.33
2022-08-26T14:52:13.748Z,17.67
2022-08-26T14:55:17.811Z,16.00
2022-08-26T14:58:21.877Z,18.67
2022-08-26T15:01:32.625Z,15.00
2022-08-26T15:04:36.705Z,16.33
2022-08-26T15:07:41.492Z,20.67
2022-08-26T15:10:47.110Z,17.00
2022-08-26T15:13:53.622Z,22.00
2022-08-26T15:17:01.005Z,21.00
2022-08-26T15:20:08.733Z,18.33
2022-08-26T15:23:12.970Z,17.67
2022-08-26T15:26:21.068Z,17.33
2022-08-26T15:29:27.742Z,23.00
2022-08-26T15:32:41.400Z,19.00
2022-08-26T15:35:45.665Z,16.33
2022-08-26T15:38:49.994Z,19.67
2022-08-26T15:41:56.345Z,20.67
2022-08-26T15:45:02.292Z,17.33
2022-08-26T15:48:09.894Z,17.33
2022-08-26T15:51:23.109Z,17.67
2022-08-26T15:54:27.654Z,17.33
2022-08-26T15:57:33.786Z,16.67
2022-08-26T16:00:37.924Z,19.00
2022-08-26T16:04:03.772Z,19.67
2022-08-26T16:07:07.774Z,18.33
2022-08-26T16:10:14.896Z,17.67
2022-08-26T16:13:20.437Z,18.33
2022-08-26T16:16:29.474Z,14.00
2022-08-26T16:19:37.596Z,14.67
2022-08-26T16:22:41.659Z,17.33
2022-08-26T16:25:47.711Z,18.67
2022-08-26T16:28:54.322Z,21.33
2022-08-26T16:31:58.635Z,22.33
2022-08-26T16:35:07.085Z,19.33
2022-08-26T16:38:12.177Z,17.00
2022-08-26T16:41:19.418Z,16.67
2022-08-26T16:44:29.875Z,18.00
2022-08-26T16:47:41.399Z,18.33
2022-08-26T16:50:51.408Z,17.33
2022-08-26T16:53:59.979Z,18.33
2022-08-26T16:57:07.645Z,21.00
2022-08-26T17:00:15.483Z,22.67
2022-08-26T17:03:19.697Z,22.67
2022-08-26T17:06:25.758Z,21.33
2022-08-26T17:09:31.639Z,22.33
2022-08-26T17:12:37.524Z,21.00
2022-08-26T17:15:41.821Z,16.33
2022-08-26T17:18:47.477Z,19.67
2022-08-26T17:21:53.936Z,18.67
2022-08-26T17:24:58.759Z,18.67
2022-08-26T17:28:02.865Z,2.67
2022-08-26T17:31:13.888Z,20.33
2022-08-26T17:34:19.167Z,18.33
2022-08-26T17:37:25.435Z,20.00
2022-08-26T17:40:31.746Z,21.00
2022-08-26T17:43:41.375Z,15.33
2022-08-26T17:46:47.006Z,15.67
2022-08-26T17:49:51.722Z,20.00
2022-08-26T17:52:58.124Z,20.00
2022-08-26T17:56:08.925Z,18.33
2022-08-26T17:59:13.558Z,17.33
2022-08-26T18:02:20.390Z,20.33
2022-08-26T18:05:25.933Z,20.00
2022-08-26T18:08:32.012Z,21.33
2022-08-26T18:11:38.858Z,13.00
2022-08-26T18:14:42.845Z,18.00
2022-08-26T18:17:48.079Z,25.00
2022-08-26T18:20:52.792Z,25.67
2022-08-26T18:24:13.332Z,29.33
2022-08-26T18:27:20.020Z,23.00
2022-08-26T18:30:24.910Z,21.00
2022-08-26T18:33:32.391Z,19.33
2022-08-26T18:36:38.386Z,20.67
2022-08-26T18:39:44.835Z,21.67
2022-08-26T18:42:53.998Z,21.33
2022-08-26T18:46:04.048Z,22.33
2022-08-26T18:49:08.508Z,23.67
2022-08-26T18:52:12.841Z,21.67
2022-08-26T18:56:06.304Z,23.00
2022-08-26T18:59:16.241Z,20.67
2022-08-26T19:02:22.425Z,21.67
2022-08-26T19:05:27.605Z,24.33
2022-08-26T19:08:31.311Z,25.33
2022-08-26T19:11:43.045Z,52.50
2022-08-26T19:14:47.343Z,30.33
2022-08-26T19:17:51.208Z,19.00
2022-08-26T19:20:54.810Z,23.33
2022-08-26T19:24:02.721Z,22.00
2022-08-26T19:27:11.730Z,22.33
2022-08-26T19:35:17.638Z,23.00
2022-08-26T19:38:21.734Z,22.33
2022-08-26T19:41:37.240Z,27.00
2022-08-26T19:45:05.132Z,22.00
2022-08-26T19:48:11.800Z,21.33
2022-08-26T19:51:25.750Z,23.67
2022-08-26T19:54:57.404Z,24.67
2022-08-26T19:58:09.566Z,23.67
2022-08-26T20:02:15.854Z,21.00
2022-08-26T20:10:25.192Z,23.33
2022-08-26T20:14:04.939Z,24.00
2022-08-26T20:17:09.001Z,20.33
2022-08-26T20:20:35.059Z,24.33
2022-08-26T20:23:53.880Z,31.33
2022-08-26T20:27:03.222Z,22.67
2022-08-26T20:30:14.206Z,23.67
2022-08-26T20:33:20.039Z,19.00
2022-08-26T20:36:26.963Z,21.67
2022-08-26T20:39:58.651Z,22.67
2022-08-26T20:43:06.082Z,22.67
2022-08-26T20:46:18.269Z,23.00
2022-08-26T20:49:42.997Z,24.33
2022-08-26T20:52:53.538Z,23.00
2022-08-26T20:56:02.671Z,22.00
2022-08-26T20:59:10.854Z,22.00
2022-08-26T21:02:14.888Z,24.33
2022-08-26T21:05:21.443Z,25.67
2022-08-26T21:08:27.032Z,19.67
2022-08-26T21:11:31.498Z,24.67
2022-08-26T21:14:36.847Z,19.67
2022-08-26T21:17:41.619Z,21.33
2022-08-26T21:20:46.631Z,22.67
2022-08-26T21:23:51.064Z,23.33
2022-08-26T21:26:55.869Z,28.33
2022-08-26T21:30:02.729Z,22.00
2022-08-26T21:33:06.840Z,20.67
2022-08-26T21:36:12.663Z,21.67
2022-08-26T21:39:18.215Z,21.67
2022-08-26T21:42:22.459Z,22.33
2022-08-26T21:45:27.993Z,24.33
2022-08-26T21:48:34.747Z,22.33
2022-08-26T21:51:43.022Z,21.00
2022-08-26T21:54:58.191Z,23.67
2022-08-26T21:58:02.433Z,24.00
2022-08-26T22:01:10.758Z,23.00
2022-08-26T22:04:14.727Z,22.33
2022-08-26T22:07:20.029Z,21.67
2022-08-26T22:10:24.871Z,19.33
2022-08-26T22:13:32.872Z,21.00
2022-08-26T22:16:38.218Z,18.67
2022-08-26T22:19:46.101Z,24.67
2022-08-26T22:22:50.380Z,20.67
2022-08-26T22:25:57.790Z,20.00
2022-08-26T22:29:03.431Z,17.67
2022-08-26T22:32:10.257Z,20.67
2022-08-26T22:35:28.774Z,24.00
2022-08-26T22:38:34.665Z,25.67
2022-08-26T22:41:37.917Z,20.33
2022-08-26T22:44:41.588Z,20.33
2022-08-26T22:47:47.159Z,21.00
2022-08-26T22:50:53.320Z,22.33
2022-08-26T22:53:59.054Z,21.00
2022-08-26T22:57:03.808Z,21.00
2022-08-26T23:00:08.988Z,23.33
2022-08-26T23:03:19.191Z,21.00
2022-08-26T23:06:22.992Z,20.67
2022-08-26T23:09:27.465Z,20.67
2022-08-26T23:12:31.627Z,22.00
2022-08-26T23:15:37.645Z,21.00
2022-08-26T23:18:45.599Z,21.67
2022-08-26T23:21:52.371Z,24.00
2022-08-26T23:24:56.236Z,19.67
2022-08-26T23:28:04.771Z,24.00
2022-08-26T23:31:24.453Z,24.00
2022-08-26T23:34:48.115Z,22.33
2022-08-26T23:37:53.407Z,22.67
2022-08-26T23:40:57.684Z,28.00
2022-08-26T23:44:05.172Z,20.67
2022-08-26T23:47:10.732Z,19.00
2022-08-26T23:50:16.251Z,24.00
2022-08-26T23:53:21.800Z,22.33
2022-08-26T23:56:26.661Z,21.33
2022-08-26T23:59:31.232Z,19.33
